createdAt,value
2023-12-02T00:02:05.945Z,20.38
2023-12-02T00:05:37.782Z,21.17
2023-12-02T00:09:10.221Z,20.90
2023-12-02T00:12:42.349Z,21.27
2023-12-02T00:16:14.976Z,20.27
2023-12-02T00:19:47.208Z,21.80
2023-12-02T00:23:19.134Z,22.33
2023-12-02T00:26:51.156Z,21.92
2023-12-02T00:30:23.351Z,19.67
2023-12-02T00:33:55.357Z,22.63
2023-12-02T00:37:27.373Z,19.00
2023-12-02T00:40:59.130Z,22.70
2023-12-02T00:44:31.124Z,20.40
2023-12-02T00:48:03.030Z,23.73
2023-12-02T00:51:35.234Z,18.27
2023-12-02T00:55:07.803Z,22.70
2023-12-02T00:58:41.780Z,22.27
2023-12-02T01:02:13.784Z,19.88
2023-12-02T01:05:46.062Z,20.65
2023-12-02T01:09:17.802Z,20.17
2023-12-02T01:12:49.966Z,20.35
2023-12-02T01:16:21.660Z,17.98
2023-12-02T01:19:53.632Z,17.90
2023-12-02T01:23:25.725Z,17.98
2023-12-02T01:26:57.714Z,16.80
2023-12-02T01:30:30.631Z,13.37
2023-12-02T01:34:02.943Z,15.20
2023-12-02T01:37:34.704Z,14.48
2023-12-02T01:41:07.014Z,13.55
2023-12-02T01:44:39.009Z,14.73
2023-12-02T01:48:11.483Z,14.10
2023-12-02T01:51:43.292Z,11.20
2023-12-02T01:55:15.745Z,11.97
2023-12-02T01:58:53.311Z,12.52
2023-12-02T02:02:26.760Z,13.40
2023-12-02T02:05:59.045Z,16.43
2023-12-02T02:09:49.960Z,13.93
2023-12-02T02:13:22.193Z,14.77
2023-12-02T02:16:53.873Z,13.75
2023-12-02T02:20:25.890Z,14.53
2023-12-02T02:23:57.605Z,13.50
2023-12-02T02:27:29.713Z,13.70
2023-12-02T02:31:01.610Z,14.53
2023-12-02T02:34:34.031Z,12.65
2023-12-02T02:38:05.866Z,14.32
2023-12-02T02:41:37.862Z,14.60
2023-12-02T02:45:10.161Z,10.18
2023-12-02T02:48:42.244Z,11.38
2023-12-02T02:52:14.119Z,10.40
2023-12-02T02:55:46.716Z,10.53
2023-12-02T02:59:18.355Z,12.05
2023-12-02T03:02:50.535Z,11.77
2023-12-02T03:06:22.656Z,9.60
2023-12-02T03:09:54.609Z,11.65
2023-12-02T03:13:26.517Z,10.07
2023-12-02T03:16:58.681Z,11.47
2023-12-02T03:20:30.703Z,13.27
2023-12-02T03:24:02.492Z,11.80
2023-12-02T03:27:34.751Z,11.88
2023-12-02T03:31:06.775Z,11.37
2023-12-02T03:34:38.776Z,11.45
2023-12-02T03:38:10.566Z,10.70
2023-12-02T03:41:43.199Z,13.77
2023-12-02T03:45:15.027Z,13.07
2023-12-02T03:48:47.242Z,12.82
2023-12-02T03:52:19.072Z,14.40
2023-12-02T03:55:51.410Z,13.90
2023-12-02T03:59:23.269Z,13.90
2023-12-02T04:02:55.580Z,11.93
2023-12-02T04:06:27.351Z,12.13
2023-12-02T04:09:59.449Z,10.88
2023-12-02T04:13:32.033Z,10.75
2023-12-02T04:17:04.232Z,8.97
2023-12-02T04:20:36.120Z,9.68
2023-12-02T04:24:08.249Z,11.70
2023-12-02T04:27:40.013Z,10.83
2023-12-02T04:31:12.156Z,11.05
2023-12-02T04:34:44.454Z,10.77
2023-12-02T04:38:17.403Z,12.27
2023-12-02T04:41:49.113Z,11.37
2023-12-02T04:45:22.019Z,11.32
2023-12-02T04:48:53.994Z,11.18
2023-12-02T04:52:26.003Z,9.70
2023-12-02T04:55:57.785Z,11.40
2023-12-02T04:59:29.910Z,10.80
2023-12-02T05:03:01.979Z,11.17
2023-12-02T05:06:34.597Z,11.63
2023-12-02T05:10:06.733Z,12.48
2023-12-02T05:13:38.899Z,10.70
2023-12-02T05:17:10.686Z,11.13
2023-12-02T05:20:42.800Z,10.07
2023-12-02T05:24:14.641Z,10.63
2023-12-02T05:27:46.844Z,8.83
2023-12-02T05:31:20.717Z,10.40
2023-12-02T05:34:52.863Z,10.52
2023-12-02T05:38:24.833Z,7.87
2023-12-02T05:41:57.001Z,8.20
2023-12-02T05:45:28.844Z,9.13
2023-12-02T05:49:01.028Z,8.68
2023-12-02T05:52:32.997Z,7.73
2023-12-02T05:56:05.999Z,7.97
2023-12-02T05:59:39.137Z,8.63
2023-12-02T06:03:11.248Z,9.30
2023-12-02T06:06:46.740Z,10.07
2023-12-02T06:10:19.244Z,10.68
2023-12-02T06:13:51.005Z,11.37
2023-12-02T06:17:23.036Z,9.88
2023-12-02T06:20:55.110Z,9.27
2023-12-02T06:24:27.196Z,9.77
2023-12-02T06:27:59.015Z,10.70
2023-12-02T06:31:34.377Z,8.82
2023-12-02T06:35:06.580Z,8.82
2023-12-02T06:38:38.760Z,8.33
2023-12-02T06:42:10.658Z,8.52
2023-12-02T06:45:42.870Z,10.32
2023-12-02T06:49:14.809Z,9.50
2023-12-02T06:52:47.654Z,8.55
2023-12-02T06:56:23.895Z,8.05
2023-12-02T06:59:56.008Z,9.52
2023-12-02T07:03:27.983Z,8.87
2023-12-02T07:06:59.807Z,8.38
2023-12-02T07:10:31.838Z,9.20
2023-12-02T07:14:04.546Z,8.30
2023-12-02T07:17:36.783Z,10.32
2023-12-02T07:21:09.233Z,10.15
2023-12-02T07:24:41.419Z,9.87
2023-12-02T07:28:13.508Z,8.95
2023-12-02T07:31:46.735Z,9.15
2023-12-02T07:35:18.533Z,9.65
2023-12-02T07:38:50.510Z,8.20
2023-12-02T07:42:22.153Z,9.98
2023-12-02T07:45:54.324Z,8.63
2023-12-02T07:49:28.727Z,11.77
2023-12-02T07:53:00.574Z,12.18
2023-12-02T07:56:32.738Z,11.48
2023-12-02T08:00:05.232Z,11.23
2023-12-02T08:03:37.570Z,9.88
2023-12-02T08:07:09.624Z,12.00
2023-12-02T08:10:41.471Z,11.48
2023-12-02T08:14:13.652Z,11.70
2023-12-02T08:17:45.605Z,10.80
2023-12-02T08:21:17.653Z,12.05
2023-12-02T08:24:49.335Z,10.77
2023-12-02T08:28:21.369Z,11.05
2023-12-02T08:31:55.130Z,11.05
2023-12-02T08:35:27.332Z,10.90
2023-12-02T08:38:59.386Z,11.82
2023-12-02T08:42:32.009Z,12.27
2023-12-02T08:46:04.171Z,12.20
2023-12-02T08:49:37.482Z,12.00
2023-12-02T08:53:10.163Z,11.93
2023-12-02T08:56:42.225Z,13.13
2023-12-02T09:00:14.772Z,12.10
2023-12-02T09:03:47.137Z,13.35
2023-12-02T09:07:18.864Z,13.85
2023-12-02T09:10:51.000Z,13.47
2023-12-02T09:14:23.029Z,18.70
2023-12-02T09:18:13.472Z,16.60
2023-12-02T09:21:45.943Z,15.27
2023-12-02T09:25:28.428Z,16.53
2023-12-02T09:29:00.364Z,15.50
2023-12-02T09:32:45.814Z,17.05
2023-12-02T09:36:36.299Z,14.43
2023-12-02T09:40:27.605Z,14.95
2023-12-02T09:44:14.920Z,14.57
2023-12-02T09:48:15.886Z,15.77
2023-12-02T09:52:06.388Z,16.50
2023-12-02T09:55:45.231Z,17.67
2023-12-02T09:59:29.685Z,15.40
2023-12-02T10:03:28.448Z,18.67
2023-12-02T10:07:29.156Z,18.75
2023-12-02T10:11:08.977Z,17.75
2023-12-02T10:14:42.610Z,14.37
2023-12-02T10:18:18.842Z,14.10
2023-12-02T10:21:54.922Z,15.15
2023-12-02T10:25:52.285Z,13.87
2023-12-02T10:29:41.380Z,14.68
2023-12-02T10:33:28.552Z,15.75
2023-12-02T10:37:02.128Z,13.88
2023-12-02T10:40:34.406Z,13.47
2023-12-02T10:44:11.108Z,14.43
2023-12-02T10:47:47.127Z,15.15
2023-12-02T10:51:20.456Z,13.93
2023-12-02T10:54:54.520Z,16.15
2023-12-02T10:58:28.177Z,15.00
2023-12-02T11:02:20.591Z,16.40
2023-12-02T11:06:01.273Z,15.55
2023-12-02T11:09:50.486Z,16.77
2023-12-02T11:13:26.795Z,20.05
2023-12-02T11:17:12.566Z,17.27
2023-12-02T11:20:59.746Z,15.30
2023-12-02T11:24:47.168Z,16.95
2023-12-02T11:28:21.527Z,18.00
2023-12-02T11:32:14.896Z,18.33
2023-12-02T11:36:13.700Z,17.50
2023-12-02T11:39:51.558Z,16.37
2023-12-02T11:43:52.299Z,17.25
2023-12-02T11:47:51.196Z,17.60
2023-12-02T11:51:40.000Z,16.08
2023-12-02T11:55:53.535Z,16.03
2023-12-02T11:59:34.200Z,16.90
2023-12-02T12:03:35.188Z,15.68
2023-12-02T12:07:25.955Z,16.00
2023-12-02T12:10:57.885Z,13.93
2023-12-02T12:14:32.021Z,16.10
2023-12-02T12:18:04.346Z,18.23
2023-12-02T12:21:36.514Z,18.33
2023-12-02T12:25:08.661Z,17.35
2023-12-02T12:28:40.727Z,16.23
2023-12-02T12:32:12.718Z,18.43
2023-12-02T12:35:44.699Z,18.40
2023-12-02T12:39:17.510Z,17.58
2023-12-02T12:42:50.580Z,16.63
2023-12-02T12:46:26.876Z,19.02
2023-12-02T12:50:03.318Z,17.10
2023-12-02T12:53:41.420Z,16.30
2023-12-02T12:57:20.843Z,15.63
2023-12-02T13:00:53.686Z,17.13
2023-12-02T13:04:37.212Z,16.13
2023-12-02T13:08:33.981Z,16.17
2023-12-02T13:12:11.054Z,16.20
2023-12-02T13:15:45.845Z,15.07
2023-12-02T13:19:17.922Z,14.20
2023-12-02T13:22:53.159Z,16.08
2023-12-02T13:26:32.679Z,15.10
2023-12-02T13:30:07.342Z,13.30
2023-12-02T13:34:02.744Z,13.65
2023-12-02T13:38:11.587Z,14.73
2023-12-02T13:41:49.680Z,11.50
2023-12-02T13:45:22.421Z,11.67
2023-12-02T13:49:09.125Z,12.45
2023-12-02T13:52:54.702Z,12.32
2023-12-02T13:56:38.144Z,10.77
2023-12-02T14:00:12.400Z,10.30
2023-12-02T14:04:29.773Z,11.55
2023-12-02T14:08:02.977Z,9.93
2023-12-02T14:11:51.745Z,9.02
2023-12-02T14:15:34.979Z,9.43
2023-12-02T14:19:21.849Z,9.18
2023-12-02T14:23:14.316Z,10.10
2023-12-02T14:27:23.737Z,10.85
2023-12-02T14:31:06.920Z,8.82
2023-12-02T14:35:04.132Z,8.73
2023-12-02T14:39:02.448Z,8.07
2023-12-02T14:42:56.793Z,8.70
2023-12-02T14:46:28.856Z,8.10
2023-12-02T14:50:01.129Z,9.10
2023-12-02T14:53:36.565Z,8.30
2023-12-02T14:57:19.633Z,7.25
2023-12-02T15:01:13.769Z,6.70
2023-12-02T15:04:46.197Z,7.07
2023-12-02T15:08:18.695Z,8.68
2023-12-02T15:11:52.261Z,10.33
2023-12-02T15:15:44.827Z,9.57
2023-12-02T15:19:17.812Z,9.57
2023-12-02T15:22:49.856Z,9.63
2023-12-02T15:26:21.713Z,8.30
2023-12-02T15:29:56.125Z,10.60
2023-12-02T15:33:40.931Z,10.38
2023-12-02T15:37:14.327Z,10.83
2023-12-02T15:40:46.547Z,11.15
2023-12-02T15:44:18.611Z,13.32
2023-12-02T15:47:50.766Z,8.80
2023-12-02T15:51:22.669Z,11.63
2023-12-02T15:54:55.075Z,9.98
2023-12-02T15:58:29.162Z,10.53
2023-12-02T16:02:04.457Z,10.68
2023-12-02T16:05:37.514Z,12.02
2023-12-02T16:09:09.536Z,12.57
2023-12-02T16:12:46.474Z,13.57
2023-12-02T16:16:18.879Z,12.23
2023-12-02T16:19:51.796Z,12.63
2023-12-02T16:23:23.535Z,12.30
2023-12-02T16:26:55.511Z,12.32
2023-12-02T16:30:28.253Z,11.75
2023-12-02T16:34:00.001Z,12.67
2023-12-02T16:37:32.314Z,14.75
2023-12-02T16:41:04.380Z,13.57
2023-12-02T16:44:36.747Z,14.07
2023-12-02T16:48:12.845Z,15.37
2023-12-02T16:51:45.370Z,14.93
2023-12-02T16:55:18.178Z,13.27
2023-12-02T16:58:50.408Z,13.60
2023-12-02T17:02:35.553Z,13.30
2023-12-02T17:06:18.409Z,12.43
2023-12-02T17:09:50.515Z,13.30
2023-12-02T17:13:37.229Z,14.77
2023-12-02T17:17:09.411Z,14.70
2023-12-02T17:20:42.562Z,14.07
2023-12-02T17:24:27.191Z,15.83
2023-12-02T17:28:00.914Z,14.48
2023-12-02T17:31:36.849Z,9.20
2023-12-02T17:35:09.654Z,10.30
2023-12-02T17:38:41.646Z,11.57
2023-12-02T17:42:16.107Z,11.88
2023-12-02T17:45:48.294Z,12.00
2023-12-02T17:49:21.210Z,11.07
2023-12-02T17:52:53.592Z,10.45
2023-12-02T17:56:25.974Z,10.35
2023-12-02T17:59:57.953Z,11.23
2023-12-02T18:03:30.063Z,15.55
2023-12-02T18:07:01.981Z,15.55
2023-12-02T18:10:34.053Z,13.23
2023-12-02T18:14:05.815Z,12.25
2023-12-02T18:17:37.836Z,20.65
2023-12-02T18:21:10.015Z,11.43
2023-12-02T18:24:45.105Z,13.05
2023-12-02T18:28:17.213Z,13.40
2023-12-02T18:31:49.998Z,12.18
2023-12-02T18:35:23.550Z,8.97
2023-12-02T18:38:55.275Z,11.73
2023-12-02T18:42:27.277Z,11.20
2023-12-02T18:45:59.424Z,12.90
2023-12-02T18:49:31.406Z,15.63
2023-12-02T18:53:03.431Z,15.63
2023-12-02T18:56:35.721Z,11.93
2023-12-02T19:00:09.851Z,13.65
2023-12-02T19:03:41.958Z,13.23
2023-12-02T19:07:16.356Z,14.23
2023-12-02T19:10:48.908Z,17.67
2023-12-02T19:14:21.034Z,13.20
2023-12-02T19:17:53.038Z,14.13
2023-12-02T19:21:25.164Z,11.33
2023-12-02T19:24:57.852Z,11.13
2023-12-02T19:28:30.293Z,7.90
2023-12-02T19:32:02.381Z,13.30
2023-12-02T19:35:34.845Z,10.70
2023-12-02T19:39:06.546Z,11.25
2023-12-02T19:42:42.489Z,10.00
2023-12-02T19:46:16.114Z,10.27
2023-12-02T19:49:49.002Z,12.05
2023-12-02T19:53:22.243Z,9.43
2023-12-02T19:56:54.294Z,10.03
2023-12-02T20:00:26.752Z,11.60
2023-12-02T20:03:59.981Z,11.02
2023-12-02T20:07:32.315Z,10.47
2023-12-02T20:11:04.109Z,9.88
2023-12-02T20:14:36.177Z,12.48
2023-12-02T20:18:08.376Z,9.98
2023-12-02T20:21:41.276Z,13.40
2023-12-02T20:25:15.575Z,11.68
2023-12-02T20:28:47.560Z,11.93
2023-12-02T20:32:19.582Z,11.27
2023-12-02T20:35:51.813Z,9.45
2023-12-02T20:39:23.804Z,11.68
2023-12-02T20:42:55.913Z,10.37
2023-12-02T20:46:28.063Z,8.98
2023-12-02T20:50:00.347Z,8.68
2023-12-02T20:53:32.299Z,9.80
2023-12-02T20:57:04.447Z,8.33
2023-12-02T21:00:36.341Z,8.52
2023-12-02T21:04:08.526Z,6.45
2023-12-02T21:07:40.290Z,9.33
2023-12-02T21:11:12.426Z,7.63
2023-12-02T21:14:44.259Z,6.25
2023-12-02T21:18:16.412Z,8.43
2023-12-02T21:21:48.707Z,7.95
2023-12-02T21:25:20.944Z,6.55
2023-12-02T21:28:54.849Z,5.55
2023-12-02T21:32:28.285Z,5.67
2023-12-02T21:36:00.181Z,5.97
2023-12-02T21:39:33.453Z,6.57
2023-12-02T21:43:06.455Z,4.70
2023-12-02T21:46:38.932Z,4.82
2023-12-02T21:50:11.308Z,5.30
2023-12-02T21:53:43.110Z,5.43
2023-12-02T21:57:15.458Z,6.53
2023-12-02T22:00:57.632Z,6.43
2023-12-02T22:04:42.923Z,5.82
2023-12-02T22:08:17.568Z,6.33
2023-12-02T22:11:49.399Z,5.68
2023-12-02T22:15:35.814Z,6.25
2023-12-02T22:19:08.276Z,5.00
2023-12-02T22:22:59.249Z,5.35
2023-12-02T22:26:33.975Z,5.25
2023-12-02T22:30:24.588Z,4.30
2023-12-02T22:33:57.225Z,4.88
2023-12-02T22:37:29.312Z,4.10
2023-12-02T22:41:01.427Z,7.05
2023-12-02T22:44:35.048Z,6.50
2023-12-02T22:48:36.216Z,7.22
2023-12-02T22:52:11.606Z,6.82
2023-12-02T22:55:46.619Z,7.53
2023-12-02T22:59:22.442Z,7.55
2023-12-02T23:02:57.058Z,7.47
2023-12-02T23:06:32.410Z,8.47
2023-12-02T23:10:05.013Z,8.82
2023-12-02T23:13:48.498Z,8.50
2023-12-02T23:17:24.391Z,8.15
2023-12-02T23:20:56.577Z,10.03
2023-12-02T23:24:33.521Z,8.05
2023-12-02T23:28:05.718Z,8.95
2023-12-02T23:31:38.982Z,8.20
2023-12-02T23:35:18.932Z,9.65
2023-12-02T23:38:51.912Z,9.38
2023-12-02T23:42:41.648Z,9.47
2023-12-02T23:46:13.560Z,7.80
2023-12-02T23:49:45.808Z,6.82
2023-12-02T23:53:17.593Z,9.45
2023-12-02T23:56:49.706Z,5.87
